createdAt,value
2022-09-20T00:01:32.516Z,88.08
2022-09-20T00:04:04.816Z,88.45
2022-09-20T00:06:33.640Z,88.50
2022-09-20T00:09:02.643Z,88.23
2022-09-20T00:11:33.059Z,88.36
2022-09-20T00:14:02.616Z,88.08
2022-09-20T00:16:33.296Z,87.85
2022-09-20T00:19:04.210Z,88.26
2022-09-20T00:21:34.460Z,88.42
2022-09-20T00:24:02.685Z,88.48
2022-09-20T00:26:30.149Z,88.47
2022-09-20T00:28:58.585Z,88.81
2022-09-20T00:31:26.624Z,88.31
2022-09-20T00:34:14.072Z,89.06
2022-09-20T00:36:41.942Z,89.07
2022-09-20T00:39:12.551Z,88.64
2022-09-20T00:41:39.903Z,88.79
2022-09-20T00:44:45.360Z,89.05
2022-09-20T00:47:24.937Z,88.71
2022-09-20T00:50:02.840Z,88.10
2022-09-20T00:52:31.639Z,86.26
2022-09-20T00:55:00.855Z,86.06
2022-09-20T00:57:28.460Z,86.31
2022-09-20T00:59:56.226Z,85.01
2022-09-20T01:02:27.891Z,84.57
2022-09-20T01:04:57.674Z,83.12
2022-09-20T01:07:26.692Z,83.49
2022-09-20T01:09:54.143Z,83.64
2022-09-20T01:12:29.327Z,82.92
2022-09-20T01:14:59.136Z,83.98
2022-09-20T01:17:30.298Z,82.41
2022-09-20T01:20:06.868Z,81.81
2022-09-20T01:22:52.806Z,82.31
2022-09-20T01:25:56.956Z,82.58
2022-09-20T01:28:26.437Z,83.83
2022-09-20T01:31:26.433Z,83.68
2022-09-20T01:34:34.790Z,83.33
2022-09-20T01:37:02.344Z,83.62
2022-09-20T01:40:00.294Z,83.12
2022-09-20T01:42:33.877Z,83.73
2022-09-20T01:45:15.914Z,83.73
2022-09-20T01:48:13.565Z,81.91
2022-09-20T01:50:56.039Z,83.21
2022-09-20T01:53:54.308Z,83.93
2022-09-20T01:56:49.707Z,82.85
2022-09-20T01:59:41.670Z,84.06
2022-09-20T02:02:36.976Z,83.29
2022-09-20T02:05:07.418Z,84.20
2022-09-20T02:07:51.025Z,82.89
2022-09-20T02:10:40.676Z,83.36
2022-09-20T02:13:29.345Z,83.15
2022-09-20T02:16:09.188Z,83.21
2022-09-20T02:18:36.502Z,83.07
2022-09-20T02:21:20.484Z,83.30
2022-09-20T02:24:25.349Z,83.18
2022-09-20T02:27:19.857Z,83.46
2022-09-20T02:30:19.451Z,82.26
2022-09-20T02:33:05.684Z,82.56
2022-09-20T02:35:51.270Z,82.71
2022-09-20T02:38:36.585Z,82.72
2022-09-20T02:41:18.943Z,83.03
2022-09-20T02:44:05.558Z,82.77
2022-09-20T02:46:45.395Z,82.00
2022-09-20T02:49:50.759Z,82.19
2022-09-20T02:52:28.077Z,83.34
2022-09-20T02:55:17.910Z,81.92
2022-09-20T02:58:00.675Z,83.04
2022-09-20T03:00:54.137Z,82.80
2022-09-20T03:03:51.677Z,82.68
2022-09-20T03:06:41.456Z,82.80
2022-09-20T03:09:27.540Z,82.85
2022-09-20T03:12:13.819Z,81.20
2022-09-20T03:14:49.680Z,82.17
2022-09-20T03:17:45.159Z,82.62
2022-09-20T03:20:35.397Z,82.34
2022-09-20T03:23:15.207Z,81.71
2022-09-20T03:25:58.696Z,81.86
2022-09-20T03:28:28.965Z,83.21
2022-09-20T03:31:05.042Z,82.55
2022-09-20T03:33:57.664Z,82.89
2022-09-20T03:36:39.940Z,83.54
2022-09-20T03:39:29.583Z,82.97
2022-09-20T03:41:59.580Z,82.50
2022-09-20T03:44:58.683Z,83.28
2022-09-20T03:47:44.407Z,83.07
2022-09-20T03:50:41.087Z,82.50
2022-09-20T03:53:33.244Z,83.19
2022-09-20T03:56:19.627Z,83.01
2022-09-20T03:59:08.047Z,83.79
2022-09-20T04:01:38.529Z,82.82
2022-09-20T04:04:51.946Z,82.62
2022-09-20T04:07:38.196Z,82.51
2022-09-20T04:10:13.773Z,82.96
2022-09-20T04:13:00.366Z,82.59
2022-09-20T04:15:58.903Z,82.93
2022-09-20T04:18:52.600Z,82.78
2022-09-20T04:21:53.860Z,83.27
2022-09-20T04:24:30.416Z,83.31
2022-09-20T04:27:20.870Z,83.20
2022-09-20T04:29:53.938Z,83.09
2022-09-20T04:32:56.048Z,83.59
2022-09-20T04:36:00.604Z,82.95
2022-09-20T04:38:29.252Z,82.73
2022-09-20T04:41:30.733Z,82.73
2022-09-20T04:44:27.758Z,82.94
2022-09-20T04:47:13.415Z,82.67
2022-09-20T04:50:06.179Z,83.48
2022-09-20T04:53:01.077Z,82.73
2022-09-20T04:56:08.248Z,82.26
2022-09-20T04:58:40.524Z,82.26
2022-09-20T05:01:17.634Z,83.63
2022-09-20T05:03:59.904Z,82.09
2022-09-20T05:06:36.244Z,82.30
2022-09-20T05:09:15.764Z,82.05
2022-09-20T05:11:56.555Z,82.12
2022-09-20T05:14:24.824Z,81.93
2022-09-20T05:17:07.429Z,81.93
2022-09-20T05:19:43.625Z,82.09
2022-09-20T05:22:26.437Z,82.00
2022-09-20T05:24:56.584Z,83.49
2022-09-20T05:27:46.609Z,82.14
2022-09-20T05:30:38.534Z,82.03
2022-09-20T05:33:26.247Z,81.72
2022-09-20T05:36:12.995Z,81.42
2022-09-20T05:38:43.634Z,80.98
2022-09-20T05:41:48.257Z,81.00
2022-09-20T05:44:40.115Z,80.46
2022-09-20T05:47:36.870Z,80.82
2022-09-20T05:50:24.429Z,80.66
2022-09-20T05:52:55.323Z,80.23
2022-09-20T05:55:47.608Z,80.46
2022-09-20T05:58:38.465Z,80.83
2022-09-20T06:01:38.115Z,79.80
2022-09-20T06:04:29.544Z,80.34
2022-09-20T06:07:29.850Z,80.29
2022-09-20T06:10:25.715Z,80.22
2022-09-20T06:13:39.732Z,78.88
2022-09-20T06:16:12.741Z,78.59
2022-09-20T06:18:50.140Z,78.09
2022-09-20T06:21:17.788Z,77.36
2022-09-20T06:23:45.480Z,78.78
2022-09-20T06:26:26.468Z,76.94
2022-09-20T06:28:59.474Z,77.56
2022-09-20T06:31:27.377Z,77.52
2022-09-20T06:34:05.741Z,76.79
2022-09-20T06:37:19.119Z,76.73
2022-09-20T06:40:52.940Z,75.11
2022-09-20T06:43:20.292Z,75.90
2022-09-20T06:45:48.550Z,75.19
2022-09-20T06:48:16.519Z,75.57
2022-09-20T06:50:45.295Z,75.69
2022-09-20T06:53:21.438Z,77.24
2022-09-20T06:55:49.047Z,76.24
2022-09-20T06:58:16.778Z,75.42
2022-09-20T07:00:44.327Z,75.75
2022-09-20T07:03:12.984Z,77.34
2022-09-20T07:05:40.815Z,76.06
2022-09-20T07:08:08.288Z,75.27
2022-09-20T07:10:35.641Z,74.59
2022-09-20T07:13:03.599Z,74.66
2022-09-20T07:15:35.165Z,75.87
2022-09-20T07:18:02.823Z,74.89
2022-09-20T07:20:30.357Z,75.74
2022-09-20T07:22:57.932Z,75.01
2022-09-20T07:25:25.633Z,74.86
2022-09-20T07:27:53.069Z,74.89
2022-09-20T07:30:21.579Z,74.41
2022-09-20T07:32:49.989Z,74.18
2022-09-20T07:35:17.421Z,73.62
2022-09-20T07:37:44.843Z,73.34
2022-09-20T07:40:12.963Z,71.96
2022-09-20T07:42:40.419Z,73.37
2022-09-20T07:45:08.261Z,73.88
2022-09-20T07:47:35.979Z,73.51
2022-09-20T07:50:03.970Z,72.22
2022-09-20T07:52:31.543Z,71.69
2022-09-20T07:54:59.203Z,71.90
2022-09-20T07:57:26.697Z,71.68
2022-09-20T07:59:54.151Z,70.25
2022-09-20T08:02:21.835Z,71.73
2022-09-20T08:04:49.879Z,70.84
2022-09-20T08:07:17.291Z,71.45
2022-09-20T08:09:44.908Z,72.73
2022-09-20T08:15:01.846Z,70.74
2022-09-20T08:17:30.144Z,69.40
2022-09-20T08:19:57.679Z,69.60
2022-09-20T08:22:25.075Z,68.63
2022-09-20T08:24:52.765Z,69.87
2022-09-20T08:27:20.684Z,70.12
2022-09-20T08:29:48.132Z,68.89
2022-09-20T08:32:15.933Z,69.51
2022-09-20T08:34:43.449Z,69.30
2022-09-20T08:37:10.763Z,69.14
2022-09-20T08:42:44.875Z,70.16
2022-09-20T08:45:34.376Z,68.71
2022-09-20T08:48:05.713Z,67.48
2022-09-20T08:50:36.830Z,67.10
2022-09-20T08:53:05.144Z,69.91
2022-09-20T08:55:36.806Z,66.15
2022-09-20T08:58:08.491Z,65.86
2022-09-20T09:00:38.831Z,67.13
2022-09-20T09:03:17.854Z,66.95
2022-09-20T09:05:50.624Z,68.64
2022-09-20T09:08:21.252Z,67.00
2022-09-20T09:10:54.726Z,66.93
2022-09-20T09:13:37.583Z,66.86
2022-09-20T09:16:22.712Z,67.18
2022-09-20T09:18:53.116Z,66.17
2022-09-20T09:21:24.355Z,64.37
2022-09-20T09:24:20.191Z,64.54
2022-09-20T09:26:48.672Z,64.95
2022-09-20T09:29:21.351Z,65.33
2022-09-20T09:31:52.177Z,64.57
2022-09-20T09:34:40.874Z,64.19
2022-09-20T09:37:26.405Z,64.66
2022-09-20T09:40:09.514Z,63.84
2022-09-20T09:42:37.225Z,61.95
2022-09-20T09:45:27.192Z,64.66
2022-09-20T09:47:56.647Z,62.13
2022-09-20T09:50:27.896Z,63.63
2022-09-20T09:53:11.145Z,63.00
2022-09-20T09:56:14.514Z,61.78
2022-09-20T09:59:01.899Z,60.94
2022-09-20T10:01:48.394Z,57.69
2022-09-20T10:04:25.357Z,59.62
2022-09-20T10:07:06.151Z,59.22
2022-09-20T10:09:45.059Z,59.08
2022-09-20T10:12:26.260Z,57.39
2022-09-20T10:15:10.311Z,55.87
2022-09-20T10:18:19.338Z,57.38
2022-09-20T10:20:59.307Z,58.27
2022-09-20T10:23:51.933Z,58.88
2022-09-20T10:26:37.514Z,59.92
2022-09-20T10:29:16.732Z,58.89
2022-09-20T10:32:19.301Z,58.62
2022-09-20T10:35:17.338Z,56.77
2022-09-20T10:38:03.538Z,56.52
2022-09-20T10:41:21.915Z,54.93
2022-09-20T10:44:08.429Z,57.31
2022-09-20T10:46:53.720Z,56.44
2022-09-20T10:49:34.899Z,56.45
2022-09-20T10:52:43.217Z,56.90
2022-09-20T10:55:33.978Z,58.01
2022-09-20T10:58:13.745Z,59.56
2022-09-20T11:00:53.471Z,59.72
2022-09-20T11:03:35.758Z,60.96
2022-09-20T11:06:21.314Z,61.20
2022-09-20T11:08:54.226Z,61.60
2022-09-20T11:11:45.428Z,59.56
2022-09-20T11:14:19.342Z,58.36
2022-09-20T11:16:53.424Z,57.34
2022-09-20T11:19:31.502Z,57.50
2022-09-20T11:22:13.366Z,58.06
2022-09-20T11:24:50.812Z,56.50
2022-09-20T11:27:21.164Z,55.19
2022-09-20T11:29:51.926Z,55.07
2022-09-20T11:32:30.502Z,55.17
2022-09-20T11:35:20.923Z,55.53
2022-09-20T11:38:24.877Z,55.53
2022-09-20T11:41:02.466Z,53.98
2022-09-20T11:43:32.133Z,57.03
2022-09-20T11:46:04.518Z,57.29
2022-09-20T11:48:39.619Z,58.88
2022-09-20T11:51:28.532Z,59.47
2022-09-20T11:54:15.312Z,55.01
2022-09-20T11:56:50.873Z,54.15
2022-09-20T11:59:40.744Z,53.80
2022-09-20T12:02:23.793Z,54.79
2022-09-20T12:04:53.444Z,53.11
2022-09-20T12:07:29.916Z,55.21
2022-09-20T12:10:05.073Z,54.98
2022-09-20T12:12:48.278Z,54.84
2022-09-20T12:15:22.178Z,54.16
2022-09-20T12:17:52.560Z,52.36
2022-09-20T12:20:35.272Z,54.31
2022-09-20T12:23:43.346Z,53.57
2022-09-20T12:26:21.336Z,50.78
2022-09-20T12:29:24.076Z,51.48
2022-09-20T12:31:55.614Z,53.71
2022-09-20T12:34:25.512Z,51.22
2022-09-20T12:36:56.030Z,52.14
2022-09-20T12:39:29.753Z,51.96
2022-09-20T12:42:01.268Z,51.35
2022-09-20T12:44:57.440Z,51.00
2022-09-20T12:47:26.715Z,51.99
2022-09-20T12:50:19.044Z,51.90
2022-09-20T12:52:58.909Z,53.63
2022-09-20T12:55:32.504Z,55.54
2022-09-20T12:58:02.182Z,55.54
2022-09-20T13:01:14.318Z,57.94
2022-09-20T13:03:44.977Z,58.13
2022-09-20T13:06:16.484Z,58.69
2022-09-20T13:08:49.385Z,58.56
2022-09-20T13:11:20.731Z,57.78
2022-09-20T13:14:10.128Z,58.22
2022-09-20T13:16:37.511Z,55.22
2022-09-20T13:19:41.832Z,52.51
2022-09-20T13:22:14.861Z,53.72
2022-09-20T13:24:46.461Z,52.49
2022-09-20T13:27:30.784Z,52.51
2022-09-20T13:30:17.432Z,52.68
2022-09-20T13:32:44.989Z,53.27
2022-09-20T13:35:12.619Z,52.06
2022-09-20T13:37:47.636Z,53.05
2022-09-20T13:40:21.395Z,52.90
2022-09-20T13:42:52.428Z,53.51
2022-09-20T13:45:22.182Z,53.62
2022-09-20T13:47:53.106Z,53.00
2022-09-20T13:50:32.942Z,53.31
2022-09-20T13:53:02.142Z,53.04
2022-09-20T13:55:39.963Z,55.22
2022-09-20T13:58:09.602Z,54.58
2022-09-20T14:00:44.912Z,55.71
2022-09-20T14:03:17.807Z,56.01
2022-09-20T14:05:58.275Z,56.86
2022-09-20T14:08:37.729Z,58.05
2022-09-20T14:11:17.456Z,59.20
2022-09-20T14:13:48.801Z,58.80
2022-09-20T14:16:18.978Z,60.02
2022-09-20T14:18:48.330Z,61.03
2022-09-20T14:21:23.706Z,60.30
2022-09-20T14:24:02.230Z,60.44
2022-09-20T14:26:33.508Z,58.78
2022-09-20T14:29:33.271Z,59.70
2022-09-20T14:32:07.122Z,62.17
2022-09-20T14:34:39.798Z,63.42
2022-09-20T14:37:18.083Z,62.82
2022-09-20T14:39:53.306Z,62.23
2022-09-20T14:42:28.752Z,63.16
2022-09-20T14:44:56.796Z,63.42
2022-09-20T14:47:36.535Z,64.59
2022-09-20T14:50:23.225Z,63.98
2022-09-20T14:53:03.822Z,63.85
2022-09-20T14:55:37.161Z,64.69
2022-09-20T14:58:10.779Z,62.89
2022-09-20T15:00:50.707Z,61.50
2022-09-20T15:03:26.259Z,61.49
2022-09-20T15:05:54.132Z,60.25
2022-09-20T15:08:21.899Z,62.41
2022-09-20T15:10:49.477Z,62.68
2022-09-20T15:13:17.803Z,61.17
2022-09-20T15:15:49.752Z,61.67
2022-09-20T15:18:26.475Z,62.09
2022-09-20T15:20:54.995Z,62.78
2022-09-20T15:23:22.712Z,63.28
2022-09-20T15:25:51.381Z,64.01
2022-09-20T15:28:19.579Z,64.92
2022-09-20T15:30:50.450Z,65.23
2022-09-20T15:33:19.544Z,66.02
2022-09-20T15:35:48.108Z,65.47
2022-09-20T15:38:19.222Z,66.04
2022-09-20T15:40:49.111Z,66.79
2022-09-20T15:43:24.045Z,66.02
2022-09-20T15:45:54.545Z,65.67
2022-09-20T15:48:25.499Z,66.64
2022-09-20T15:51:05.837Z,67.04
2022-09-20T15:53:39.718Z,66.43
2022-09-20T15:56:34.733Z,67.77
2022-09-20T15:59:08.894Z,65.65
2022-09-20T16:01:41.651Z,65.92
2022-09-20T16:04:14.915Z,66.37
2022-09-20T16:06:44.001Z,65.07
2022-09-20T16:09:11.941Z,65.33
2022-09-20T16:11:40.112Z,66.54
2022-09-20T16:14:07.587Z,64.97
2022-09-20T16:16:40.012Z,64.73
2022-09-20T16:19:23.775Z,63.83
2022-09-20T16:21:58.071Z,64.68
2022-09-20T16:24:28.197Z,65.82
2022-09-20T16:26:56.542Z,64.62
2022-09-20T16:29:25.998Z,65.79
2022-09-20T16:31:54.469Z,66.03
2022-09-20T16:34:23.888Z,65.14
2022-09-20T16:36:54.193Z,64.86
2022-09-20T16:39:29.043Z,64.29
2022-09-20T16:42:03.564Z,64.85
2022-09-20T16:44:33.311Z,65.35
2022-09-20T16:47:01.138Z,65.46
2022-09-20T16:49:28.800Z,66.46
2022-09-20T16:51:56.698Z,67.80
2022-09-20T16:54:27.375Z,69.63
2022-09-20T16:56:57.460Z,71.07
2022-09-20T16:59:24.868Z,71.39
2022-09-20T17:01:52.498Z,73.49
2022-09-20T17:04:21.159Z,73.18
2022-09-20T17:06:50.266Z,73.24
2022-09-20T17:09:17.761Z,74.46
2022-09-20T17:11:49.085Z,72.75
2022-09-20T17:14:20.616Z,73.16
2022-09-20T17:16:49.442Z,73.22
2022-09-20T17:19:18.911Z,73.17
2022-09-20T17:21:50.179Z,73.19
2022-09-20T17:24:22.302Z,73.71
2022-09-20T17:26:50.731Z,75.88
2022-09-20T17:29:19.872Z,75.39
2022-09-20T17:31:55.207Z,74.88
2022-09-20T17:34:25.073Z,74.98
2022-09-20T17:36:54.100Z,75.46
2022-09-20T17:39:21.584Z,75.46
2022-09-20T17:41:49.960Z,75.49
2022-09-20T17:44:17.595Z,76.54
2022-09-20T17:46:47.966Z,76.24
2022-09-20T17:49:18.254Z,76.39
2022-09-20T17:51:51.297Z,77.42
2022-09-20T17:54:20.152Z,76.81
2022-09-20T17:56:53.447Z,77.48
2022-09-20T17:59:21.609Z,77.82
2022-09-20T18:01:51.968Z,78.35
2022-09-20T18:04:24.471Z,80.05
2022-09-20T18:06:54.307Z,80.24
2022-09-20T18:09:24.862Z,79.64
2022-09-20T18:11:54.532Z,79.50
2022-09-20T18:14:25.384Z,79.30
2022-09-20T18:16:55.887Z,80.16
2022-09-20T18:19:23.564Z,80.47
2022-09-20T18:21:50.998Z,80.03
2022-09-20T18:24:18.336Z,81.55
2022-09-20T18:26:46.021Z,82.18
2022-09-20T18:29:17.793Z,81.92
2022-09-20T18:31:52.061Z,81.92
2022-09-20T18:34:25.401Z,82.91
2022-09-20T18:36:55.771Z,83.78
2022-09-20T18:39:25.336Z,84.99
2022-09-20T18:41:53.420Z,82.98
2022-09-20T18:44:22.080Z,83.66
2022-09-20T18:46:53.031Z,83.67
2022-09-20T18:49:21.563Z,84.10
2022-09-20T18:51:49.719Z,84.91
2022-09-20T18:54:18.851Z,84.83
2022-09-20T18:56:48.792Z,83.20
2022-09-20T18:59:18.219Z,82.52
2022-09-20T19:01:55.472Z,82.22
2022-09-20T19:04:51.247Z,81.84
2022-09-20T19:07:27.841Z,82.18
2022-09-20T19:10:07.242Z,83.10
2022-09-20T19:13:05.745Z,82.45
2022-09-20T19:15:55.354Z,84.57
2022-09-20T19:18:31.338Z,84.85
2022-09-20T19:21:06.196Z,85.22
2022-09-20T19:24:02.491Z,85.62
2022-09-20T19:26:32.734Z,85.11
2022-09-20T19:29:00.813Z,84.36
2022-09-20T19:31:29.823Z,83.42
2022-09-20T19:33:59.310Z,83.08
2022-09-20T19:36:49.667Z,82.94
2022-09-20T19:39:45.360Z,82.92
2022-09-20T19:42:31.982Z,84.13
2022-09-20T19:45:15.344Z,83.98
2022-09-20T19:48:06.912Z,83.42
2022-09-20T19:50:38.685Z,82.87
2022-09-20T19:53:06.595Z,82.85
2022-09-20T19:55:35.175Z,82.50
2022-09-20T19:58:02.938Z,82.95
2022-09-20T20:00:31.445Z,82.94
2022-09-20T20:02:59.480Z,83.01
2022-09-20T20:05:29.092Z,83.21
2022-09-20T20:08:15.025Z,83.22
2022-09-20T20:11:14.915Z,83.61
2022-09-20T20:14:03.247Z,83.71
2022-09-20T20:16:52.857Z,84.04
2022-09-20T20:19:52.750Z,84.14
2022-09-20T20:22:35.546Z,84.53
2022-09-20T20:25:03.180Z,84.47
2022-09-20T20:27:32.495Z,84.62
2022-09-20T20:30:00.323Z,84.77
2022-09-20T20:32:27.741Z,84.79
2022-09-20T20:34:55.501Z,84.89
2022-09-20T20:37:24.382Z,84.96
2022-09-20T20:39:52.134Z,84.81
2022-09-20T20:42:21.563Z,85.10
2022-09-20T20:44:48.959Z,85.14
2022-09-20T20:47:16.347Z,85.39
2022-09-20T20:49:44.039Z,85.53
2022-09-20T20:52:11.467Z,85.27
2022-09-20T20:54:38.856Z,85.23
2022-09-20T20:57:06.559Z,85.43
2022-09-20T20:59:33.942Z,85.28
2022-09-20T21:02:05.781Z,85.39
2022-09-20T21:04:36.881Z,85.67
2022-09-20T21:07:04.258Z,85.79
2022-09-20T21:09:32.044Z,85.55
2022-09-20T21:11:59.754Z,85.75
2022-09-20T21:14:27.116Z,85.81
2022-09-20T21:16:54.531Z,85.84
2022-09-20T21:19:23.890Z,85.79
2022-09-20T21:21:51.327Z,85.81
2022-09-20T21:24:18.907Z,85.82
2022-09-20T21:26:46.903Z,85.76
2022-09-20T21:29:15.765Z,85.94
2022-09-20T21:31:46.499Z,85.89
2022-09-20T21:34:15.639Z,85.67
2022-09-20T21:36:44.719Z,85.90
2022-09-20T21:39:12.716Z,85.97
2022-09-20T21:41:40.918Z,86.27
2022-09-20T21:44:10.295Z,86.16
2022-09-20T21:46:40.291Z,86.14
2022-09-20T21:49:09.939Z,86.21
2022-09-20T21:51:38.804Z,86.07
2022-09-20T21:54:06.371Z,86.33
2022-09-20T21:56:36.598Z,86.63
2022-09-20T21:59:06.048Z,86.91
2022-09-20T22:01:40.221Z,86.60
2022-09-20T22:04:10.135Z,86.94
2022-09-20T22:06:42.549Z,87.02
2022-09-20T22:09:15.931Z,87.25
2022-09-20T22:11:47.996Z,87.27
2022-09-20T22:14:18.486Z,87.25
2022-09-20T22:16:47.313Z,87.46
2022-09-20T22:19:16.876Z,87.47
2022-09-20T22:21:49.703Z,87.59
2022-09-20T22:24:17.651Z,87.81
2022-09-20T22:26:48.207Z,87.59
2022-09-20T22:29:16.569Z,87.91
2022-09-20T22:31:45.683Z,87.96
2022-09-20T22:34:15.765Z,88.35
2022-09-20T22:36:43.272Z,88.29
2022-09-20T22:39:12.240Z,88.11
2022-09-20T22:41:41.482Z,88.28
2022-09-20T22:44:10.434Z,88.51
2022-09-20T22:46:38.251Z,88.81
2022-09-20T22:49:07.242Z,88.99
2022-09-20T22:51:35.116Z,89.39
2022-09-20T22:54:10.738Z,89.42
2022-09-20T22:56:41.215Z,90.09
2022-09-20T22:59:11.836Z,89.99
2022-09-20T23:01:42.344Z,90.23
2022-09-20T23:04:15.394Z,90.20
2022-09-20T23:06:47.704Z,90.34
2022-09-20T23:09:17.841Z,91.00
2022-09-20T23:11:46.456Z,90.97
2022-09-20T23:14:16.665Z,90.99
2022-09-20T23:16:44.815Z,91.35
2022-09-20T23:19:13.104Z,91.40
2022-09-20T23:21:42.449Z,91.60
2022-09-20T23:24:11.816Z,91.55
2022-09-20T23:26:40.843Z,91.84
2022-09-20T23:29:13.652Z,92.14
2022-09-20T23:31:47.089Z,92.28
2022-09-20T23:34:16.542Z,92.29
2022-09-20T23:36:45.352Z,92.52
2022-09-20T23:39:13.584Z,92.44
2022-09-20T23:41:41.664Z,92.39
2022-09-20T23:44:11.408Z,92.36
2022-09-20T23:46:38.855Z,92.50
2022-09-20T23:49:07.173Z,92.43
2022-09-20T23:51:35.602Z,92.46
2022-09-20T23:54:04.203Z,92.22
2022-09-20T23:56:32.023Z,92.33
2022-09-20T23:58:59.700Z,92.05
